sensor_id;sensor_type;location;lat;lon;timestamp;temperature;humidity
12837;DHT22;6485;51.472;5.268;2022-08-19T00:01:27;18.40;99.90
12837;DHT22;6485;51.472;5.268;2022-08-19T00:03:57;18.40;99.90
12837;DHT22;6485;51.472;5.268;2022-08-19T00:06:26;18.40;99.90
12837;DHT22;6485;51.472;5.268;2022-08-19T00:08:54;18.30;99.90
12837;DHT22;6485;51.472;5.268;2022-08-19T00:11:23;18.30;99.90
12837;DHT22;6485;51.472;5.268;2022-08-19T00:13:54;18.30;99.90
12837;DHT22;6485;51.472;5.268;2022-08-19T00:16:24;18.30;99.90
12837;DHT22;6485;51.472;5.268;2022-08-19T00:18:52;18.30;99.90
12837;DHT22;6485;51.472;5.268;2022-08-19T00:21:22;18.30;99.90
12837;DHT22;6485;51.472;5.268;2022-08-19T00:23:50;18.30;99.90
12837;DHT22;6485;51.472;5.268;2022-08-19T00:26:19;18.30;99.90
12837;DHT22;6485;51.472;5.268;2022-08-19T00:28:47;18.40;99.90
12837;DHT22;6485;51.472;5.268;2022-08-19T00:31:17;18.50;99.90
12837;DHT22;6485;51.472;5.268;2022-08-19T00:33:45;18.50;99.90
12837;DHT22;6485;51.472;5.268;2022-08-19T00:36:14;18.50;99.90
12837;DHT22;6485;51.472;5.268;2022-08-19T00:38:43;18.50;99.90
12837;DHT22;6485;51.472;5.268;2022-08-19T00:41:13;18.50;99.90
12837;DHT22;6485;51.472;5.268;2022-08-19T00:43:42;18.50;99.90
12837;DHT22;6485;51.472;5.268;2022-08-19T00:46:11;18.50;99.90
12837;DHT22;6485;51.472;5.268;2022-08-19T00:48:41;18.50;99.90
12837;DHT22;6485;51.472;5.268;2022-08-19T00:51:09;18.60;99.90
12837;DHT22;6485;51.472;5.268;2022-08-19T00:53:37;18.50;99.90
12837;DHT22;6485;51.472;5.268;2022-08-19T00:56:06;18.50;99.90
12837;DHT22;6485;51.472;5.268;2022-08-19T00:58:35;18.50;99.90
12837;DHT22;6485;51.472;5.268;2022-08-19T01:01:04;18.40;99.90
12837;DHT22;6485;51.472;5.268;2022-08-19T01:03:34;18.40;99.90
12837;DHT22;6485;51.472;5.268;2022-08-19T01:06:24;18.40;99.90
12837;DHT22;6485;51.472;5.268;2022-08-19T01:08:53;18.40;99.90
12837;DHT22;6485;51.472;5.268;2022-08-19T01:11:22;18.50;99.90
12837;DHT22;6485;51.472;5.268;2022-08-19T01:13:50;18.50;99.90
12837;DHT22;6485;51.472;5.268;2022-08-19T01:16:22;18.50;99.90
12837;DHT22;6485;51.472;5.268;2022-08-19T01:18:51;18.50;99.90
12837;DHT22;6485;51.472;5.268;2022-08-19T01:21:27;18.40;99.90
12837;DHT22;6485;51.472;5.268;2022-08-19T01:23:58;18.50;99.90
12837;DHT22;6485;51.472;5.268;2022-08-19T01:26:27;18.50;99.90
12837;DHT22;6485;51.472;5.268;2022-08-19T01:28:58;18.40;99.90
12837;DHT22;6485;51.472;5.268;2022-08-19T01:31:31;18.40;99.90
12837;DHT22;6485;51.472;5.268;2022-08-19T01:34:00;18.40;99.90
12837;DHT22;6485;51.472;5.268;2022-08-19T01:36:31;18.40;99.90
12837;DHT22;6485;51.472;5.268;2022-08-19T01:39:02;18.30;99.90
12837;DHT22;6485;51.472;5.268;2022-08-19T01:41:30;18.30;99.90
12837;DHT22;6485;51.472;5.268;2022-08-19T01:43:59;18.30;99.90
12837;DHT22;6485;51.472;5.268;2022-08-19T01:46:43;18.20;99.90
12837;DHT22;6485;51.472;5.268;2022-08-19T01:49:12;18.20;99.90
12837;DHT22;6485;51.472;5.268;2022-08-19T01:51:40;18.20;99.90
12837;DHT22;6485;51.472;5.268;2022-08-19T01:54:11;18.20;99.90
12837;DHT22;6485;51.472;5.268;2022-08-19T01:56:49;18.20;99.90
12837;DHT22;6485;51.472;5.268;2022-08-19T01:59:20;18.10;99.90
12837;DHT22;6485;51.472;5.268;2022-08-19T02:01:49;18.10;99.90
12837;DHT22;6485;51.472;5.268;2022-08-19T02:04:17;18.10;99.90
12837;DHT22;6485;51.472;5.268;2022-08-19T02:06:45;18.10;99.90
12837;DHT22;6485;51.472;5.268;2022-08-19T02:09:16;18.10;99.90
12837;DHT22;6485;51.472;5.268;2022-08-19T02:11:44;18.00;99.90
12837;DHT22;6485;51.472;5.268;2022-08-19T02:14:12;18.10;99.90
12837;DHT22;6485;51.472;5.268;2022-08-19T02:16:41;18.00;99.90
12837;DHT22;6485;51.472;5.268;2022-08-19T02:19:09;18.00;99.90
12837;DHT22;6485;51.472;5.268;2022-08-19T02:21:37;18.00;99.90
12837;DHT22;6485;51.472;5.268;2022-08-19T02:24:05;18.00;99.90
12837;DHT22;6485;51.472;5.268;2022-08-19T02:26:35;18.00;99.90
12837;DHT22;6485;51.472;5.268;2022-08-19T02:29:04;17.90;99.90
12837;DHT22;6485;51.472;5.268;2022-08-19T02:31:32;17.90;99.90
12837;DHT22;6485;51.472;5.268;2022-08-19T02:34:00;17.90;99.90
12837;DHT22;6485;51.472;5.268;2022-08-19T02:36:28;17.90;99.90
12837;DHT22;6485;51.472;5.268;2022-08-19T02:38:57;17.90;99.90
12837;DHT22;6485;51.472;5.268;2022-08-19T02:41:26;17.90;99.90
12837;DHT22;6485;51.472;5.268;2022-08-19T02:43:57;17.90;99.90
12837;DHT22;6485;51.472;5.268;2022-08-19T02:46:47;17.80;99.90
12837;DHT22;6485;51.472;5.268;2022-08-19T02:49:18;17.80;99.90
12837;DHT22;6485;51.472;5.268;2022-08-19T02:51:46;17.80;99.90
12837;DHT22;6485;51.472;5.268;2022-08-19T02:54:15;17.80;99.90
12837;DHT22;6485;51.472;5.268;2022-08-19T02:56:43;17.80;99.90
12837;DHT22;6485;51.472;5.268;2022-08-19T02:59:14;17.80;99.90
12837;DHT22;6485;51.472;5.268;2022-08-19T03:01:42;17.80;99.90
12837;DHT22;6485;51.472;5.268;2022-08-19T03:04:12;17.80;99.90
12837;DHT22;6485;51.472;5.268;2022-08-19T03:06:43;17.80;99.90
12837;DHT22;6485;51.472;5.268;2022-08-19T03:09:12;17.80;99.90
12837;DHT22;6485;51.472;5.268;2022-08-19T03:11:40;17.70;99.90
12837;DHT22;6485;51.472;5.268;2022-08-19T03:14:10;17.80;99.90
12837;DHT22;6485;51.472;5.268;2022-08-19T03:16:45;17.70;99.90
12837;DHT22;6485;51.472;5.268;2022-08-19T03:19:15;17.70;99.90
12837;DHT22;6485;51.472;5.268;2022-08-19T03:21:44;17.60;99.90
12837;DHT22;6485;51.472;5.268;2022-08-19T03:24:14;17.60;99.90
12837;DHT22;6485;51.472;5.268;2022-08-19T03:26:46;17.50;99.90
12837;DHT22;6485;51.472;5.268;2022-08-19T03:29:15;17.40;99.90
12837;DHT22;6485;51.472;5.268;2022-08-19T03:31:58;17.40;99.90
12837;DHT22;6485;51.472;5.268;2022-08-19T03:34:31;17.40;99.90
12837;DHT22;6485;51.472;5.268;2022-08-19T03:37:06;17.40;99.90
12837;DHT22;6485;51.472;5.268;2022-08-19T03:39:36;17.40;99.90
12837;DHT22;6485;51.472;5.268;2022-08-19T03:42:05;17.30;99.90
12837;DHT22;6485;51.472;5.268;2022-08-19T03:44:53;17.30;99.90
12837;DHT22;6485;51.472;5.268;2022-08-19T03:47:23;17.30;99.90
12837;DHT22;6485;51.472;5.268;2022-08-19T03:49:52;17.40;99.90
12837;DHT22;6485;51.472;5.268;2022-08-19T03:52:20;17.30;99.90
12837;DHT22;6485;51.472;5.268;2022-08-19T03:54:48;17.30;99.90
12837;DHT22;6485;51.472;5.268;2022-08-19T03:57:16;17.20;99.90
12837;DHT22;6485;51.472;5.268;2022-08-19T03:59:44;17.20;99.90
12837;DHT22;6485;51.472;5.268;2022-08-19T04:02:13;17.20;99.90
12837;DHT22;6485;51.472;5.268;2022-08-19T04:04:43;17.20;99.90
12837;DHT22;6485;51.472;5.268;2022-08-19T04:07:13;17.20;99.90
12837;DHT22;6485;51.472;5.268;2022-08-19T04:09:43;17.20;99.90
12837;DHT22;6485;51.472;5.268;2022-08-19T04:12:11;17.20;99.90
12837;DHT22;6485;51.472;5.268;2022-08-19T04:14:40;17.20;99.90
12837;DHT22;6485;51.472;5.268;2022-08-19T04:17:08;17.10;99.90
12837;DHT22;6485;51.472;5.268;2022-08-19T04:19:36;17.10;99.90
12837;DHT22;6485;51.472;5.268;2022-08-19T04:22:06;17.00;99.90
12837;DHT22;6485;51.472;5.268;2022-08-19T04:24:35;17.00;99.90
12837;DHT22;6485;51.472;5.268;2022-08-19T04:27:04;16.90;99.90
12837;DHT22;6485;51.472;5.268;2022-08-19T04:29:33;16.90;99.90
12837;DHT22;6485;51.472;5.268;2022-08-19T04:32:02;16.90;99.90
12837;DHT22;6485;51.472;5.268;2022-08-19T04:34:36;16.90;99.90
12837;DHT22;6485;51.472;5.268;2022-08-19T04:37:27;16.90;99.90
12837;DHT22;6485;51.472;5.268;2022-08-19T04:40:03;16.80;99.90
12837;DHT22;6485;51.472;5.268;2022-08-19T04:42:49;16.80;99.90
12837;DHT22;6485;51.472;5.268;2022-08-19T04:45:18;16.70;99.90
12837;DHT22;6485;51.472;5.268;2022-08-19T04:47:48;16.70;99.90
12837;DHT22;6485;51.472;5.268;2022-08-19T04:50:25;16.70;99.90
12837;DHT22;6485;51.472;5.268;2022-08-19T04:52:55;16.70;99.90
12837;DHT22;6485;51.472;5.268;2022-08-19T04:55:23;16.80;99.90
12837;DHT22;6485;51.472;5.268;2022-08-19T04:57:53;16.80;99.90
12837;DHT22;6485;51.472;5.268;2022-08-19T05:00:21;16.80;99.90
12837;DHT22;6485;51.472;5.268;2022-08-19T05:02:50;16.80;99.90
12837;DHT22;6485;51.472;5.268;2022-08-19T05:05:18;16.80;99.90
12837;DHT22;6485;51.472;5.268;2022-08-19T05:07:47;16.80;99.90
12837;DHT22;6485;51.472;5.268;2022-08-19T05:10:17;16.80;99.90
12837;DHT22;6485;51.472;5.268;2022-08-19T05:12:46;16.90;99.90
12837;DHT22;6485;51.472;5.268;2022-08-19T05:15:14;16.90;99.90
12837;DHT22;6485;51.472;5.268;2022-08-19T05:17:42;16.90;99.90
12837;DHT22;6485;51.472;5.268;2022-08-19T05:20:30;16.90;99.90
12837;DHT22;6485;51.472;5.268;2022-08-19T05:23:16;16.90;99.90
12837;DHT22;6485;51.472;5.268;2022-08-19T05:25:50;16.90;99.90
12837;DHT22;6485;51.472;5.268;2022-08-19T05:28:19;16.90;99.90
12837;DHT22;6485;51.472;5.268;2022-08-19T05:30:48;17.00;99.90
12837;DHT22;6485;51.472;5.268;2022-08-19T05:33:18;17.00;99.90
12837;DHT22;6485;51.472;5.268;2022-08-19T05:35:46;17.10;99.90
12837;DHT22;6485;51.472;5.268;2022-08-19T05:38:16;17.10;99.90
12837;DHT22;6485;51.472;5.268;2022-08-19T05:40:44;17.20;99.90
12837;DHT22;6485;51.472;5.268;2022-08-19T05:43:17;17.20;99.90
12837;DHT22;6485;51.472;5.268;2022-08-19T05:45:45;17.20;99.90
12837;DHT22;6485;51.472;5.268;2022-08-19T05:48:14;17.30;99.90
12837;DHT22;6485;51.472;5.268;2022-08-19T05:50:47;17.40;99.90
12837;DHT22;6485;51.472;5.268;2022-08-19T05:53:17;17.40;99.90
12837;DHT22;6485;51.472;5.268;2022-08-19T05:55:45;17.40;99.90
12837;DHT22;6485;51.472;5.268;2022-08-19T05:58:13;17.50;99.90
12837;DHT22;6485;51.472;5.268;2022-08-19T06:00:44;17.50;99.90
12837;DHT22;6485;51.472;5.268;2022-08-19T06:03:12;17.50;99.90
12837;DHT22;6485;51.472;5.268;2022-08-19T06:05:42;17.60;99.90
12837;DHT22;6485;51.472;5.268;2022-08-19T06:08:18;17.50;99.90
12837;DHT22;6485;51.472;5.268;2022-08-19T06:11:14;17.60;99.90
12837;DHT22;6485;51.472;5.268;2022-08-19T06:13:47;17.70;99.90
12837;DHT22;6485;51.472;5.268;2022-08-19T06:16:28;17.80;99.90
12837;DHT22;6485;51.472;5.268;2022-08-19T06:19:01;17.80;99.90
12837;DHT22;6485;51.472;5.268;2022-08-19T06:21:32;17.90;99.90
12837;DHT22;6485;51.472;5.268;2022-08-19T06:24:01;17.90;99.90
12837;DHT22;6485;51.472;5.268;2022-08-19T06:26:30;18.00;99.90
12837;DHT22;6485;51.472;5.268;2022-08-19T06:29:00;18.00;99.90
12837;DHT22;6485;51.472;5.268;2022-08-19T06:31:30;18.10;99.90
12837;DHT22;6485;51.472;5.268;2022-08-19T06:34:00;18.10;99.90
12837;DHT22;6485;51.472;5.268;2022-08-19T06:36:31;18.20;99.90
12837;DHT22;6485;51.472;5.268;2022-08-19T06:39:01;18.30;99.90
12837;DHT22;6485;51.472;5.268;2022-08-19T06:41:30;18.40;99.90
12837;DHT22;6485;51.472;5.268;2022-08-19T06:43:58;18.50;99.90
12837;DHT22;6485;51.472;5.268;2022-08-19T06:46:30;18.50;99.90
12837;DHT22;6485;51.472;5.268;2022-08-19T06:49:01;18.60;99.90
12837;DHT22;6485;51.472;5.268;2022-08-19T06:51:31;18.60;99.90
12837;DHT22;6485;51.472;5.268;2022-08-19T06:53:59;18.70;99.90
12837;DHT22;6485;51.472;5.268;2022-08-19T06:56:30;18.70;99.90
12837;DHT22;6485;51.472;5.268;2022-08-19T06:59:03;18.70;99.90
12837;DHT22;6485;51.472;5.268;2022-08-19T07:04:11;18.90;99.90
12837;DHT22;6485;51.472;5.268;2022-08-19T07:06:41;18.90;99.90
12837;DHT22;6485;51.472;5.268;2022-08-19T07:09:13;19.00;99.90
12837;DHT22;6485;51.472;5.268;2022-08-19T07:11:50;19.10;99.90
12837;DHT22;6485;51.472;5.268;2022-08-19T07:14:24;19.10;99.90
12837;DHT22;6485;51.472;5.268;2022-08-19T07:16:54;19.20;99.90
12837;DHT22;6485;51.472;5.268;2022-08-19T07:19:26;19.30;99.90
12837;DHT22;6485;51.472;5.268;2022-08-19T07:21:57;19.30;99.90
12837;DHT22;6485;51.472;5.268;2022-08-19T07:24:29;19.30;99.90
12837;DHT22;6485;51.472;5.268;2022-08-19T07:27:03;19.50;99.90
12837;DHT22;6485;51.472;5.268;2022-08-19T07:29:41;19.70;99.90
12837;DHT22;6485;51.472;5.268;2022-08-19T07:32:09;19.70;99.90
12837;DHT22;6485;51.472;5.268;2022-08-19T07:34:40;19.70;99.90
12837;DHT22;6485;51.472;5.268;2022-08-19T07:37:09;19.80;99.90
12837;DHT22;6485;51.472;5.268;2022-08-19T07:39:38;19.80;99.90
12837;DHT22;6485;51.472;5.268;2022-08-19T07:42:08;19.80;99.90
12837;DHT22;6485;51.472;5.268;2022-08-19T07:44:39;19.90;99.90
12837;DHT22;6485;51.472;5.268;2022-08-19T07:47:16;19.90;99.90
12837;DHT22;6485;51.472;5.268;2022-08-19T07:50:10;19.70;99.90
12837;DHT22;6485;51.472;5.268;2022-08-19T07:52:39;19.70;99.90
12837;DHT22;6485;51.472;5.268;2022-08-19T07:55:17;19.80;99.90
12837;DHT22;6485;51.472;5.268;2022-08-19T07:58:06;19.80;99.90
12837;DHT22;6485;51.472;5.268;2022-08-19T08:00:34;19.70;99.90
12837;DHT22;6485;51.472;5.268;2022-08-19T08:03:05;19.70;99.90
12837;DHT22;6485;51.472;5.268;2022-08-19T08:05:37;19.80;99.90
12837;DHT22;6485;51.472;5.268;2022-08-19T08:08:23;19.80;99.90
12837;DHT22;6485;51.472;5.268;2022-08-19T08:11:11;19.90;99.90
12837;DHT22;6485;51.472;5.268;2022-08-19T08:13:42;20.00;99.90
12837;DHT22;6485;51.472;5.268;2022-08-19T08:16:10;20.10;99.90
12837;DHT22;6485;51.472;5.268;2022-08-19T08:18:40;20.20;99.90
12837;DHT22;6485;51.472;5.268;2022-08-19T08:21:20;20.20;99.90
12837;DHT22;6485;51.472;5.268;2022-08-19T08:23:48;20.20;99.90
12837;DHT22;6485;51.472;5.268;2022-08-19T08:26:22;20.30;99.90
12837;DHT22;6485;51.472;5.268;2022-08-19T08:28:52;20.30;99.90
12837;DHT22;6485;51.472;5.268;2022-08-19T08:31:20;20.30;99.90
12837;DHT22;6485;51.472;5.268;2022-08-19T08:33:48;20.30;99.90
12837;DHT22;6485;51.472;5.268;2022-08-19T08:36:17;20.40;99.90
12837;DHT22;6485;51.472;5.268;2022-08-19T08:38:47;20.40;99.90
12837;DHT22;6485;51.472;5.268;2022-08-19T08:41:22;20.40;99.90
12837;DHT22;6485;51.472;5.268;2022-08-19T08:43:55;20.40;99.90
12837;DHT22;6485;51.472;5.268;2022-08-19T08:46:29;20.40;99.90
12837;DHT22;6485;51.472;5.268;2022-08-19T08:49:02;20.40;99.90
12837;DHT22;6485;51.472;5.268;2022-08-19T08:51:38;20.40;99.90
12837;DHT22;6485;51.472;5.268;2022-08-19T08:54:17;20.50;99.90
12837;DHT22;6485;51.472;5.268;2022-08-19T08:56:47;20.50;99.90
12837;DHT22;6485;51.472;5.268;2022-08-19T08:59:21;20.50;99.90
12837;DHT22;6485;51.472;5.268;2022-08-19T09:01:52;20.50;99.90
12837;DHT22;6485;51.472;5.268;2022-08-19T09:04:20;20.50;99.90
12837;DHT22;6485;51.472;5.268;2022-08-19T09:06:53;20.50;99.90
12837;DHT22;6485;51.472;5.268;2022-08-19T09:09:29;20.50;99.90
12837;DHT22;6485;51.472;5.268;2022-08-19T09:12:06;20.60;99.90
12837;DHT22;6485;51.472;5.268;2022-08-19T09:14:43;20.60;99.90
12837;DHT22;6485;51.472;5.268;2022-08-19T09:17:18;20.70;99.90
12837;DHT22;6485;51.472;5.268;2022-08-19T09:19:51;20.70;99.90
12837;DHT22;6485;51.472;5.268;2022-08-19T09:22:19;20.60;99.90
12837;DHT22;6485;51.472;5.268;2022-08-19T09:24:55;20.70;99.90
12837;DHT22;6485;51.472;5.268;2022-08-19T09:27:26;20.80;99.90
12837;DHT22;6485;51.472;5.268;2022-08-19T09:30:13;20.90;99.90
12837;DHT22;6485;51.472;5.268;2022-08-19T09:32:43;20.90;99.90
12837;DHT22;6485;51.472;5.268;2022-08-19T09:35:21;20.90;99.90
12837;DHT22;6485;51.472;5.268;2022-08-19T09:37:54;20.90;99.90
12837;DHT22;6485;51.472;5.268;2022-08-19T09:40:32;20.90;99.90
12837;DHT22;6485;51.472;5.268;2022-08-19T09:43:06;20.90;99.90
12837;DHT22;6485;51.472;5.268;2022-08-19T09:45:43;20.90;99.90
12837;DHT22;6485;51.472;5.268;2022-08-19T09:48:20;20.90;99.90
12837;DHT22;6485;51.472;5.268;2022-08-19T09:50:52;20.80;99.90
12837;DHT22;6485;51.472;5.268;2022-08-19T09:53:23;20.80;99.90
12837;DHT22;6485;51.472;5.268;2022-08-19T09:56:03;20.80;99.90
12837;DHT22;6485;51.472;5.268;2022-08-19T09:58:36;20.90;99.90
12837;DHT22;6485;51.472;5.268;2022-08-19T10:01:07;20.90;99.90
12837;DHT22;6485;51.472;5.268;2022-08-19T10:03:40;20.90;99.90
12837;DHT22;6485;51.472;5.268;2022-08-19T10:06:16;21.00;99.90
12837;DHT22;6485;51.472;5.268;2022-08-19T10:09:09;21.00;99.90
12837;DHT22;6485;51.472;5.268;2022-08-19T10:11:43;21.10;99.90
12837;DHT22;6485;51.472;5.268;2022-08-19T10:14:21;21.10;99.90
12837;DHT22;6485;51.472;5.268;2022-08-19T10:17:00;21.10;99.90
12837;DHT22;6485;51.472;5.268;2022-08-19T10:19:45;21.10;99.90
12837;DHT22;6485;51.472;5.268;2022-08-19T10:22:23;21.30;99.90
12837;DHT22;6485;51.472;5.268;2022-08-19T10:24:53;21.40;99.90
12837;DHT22;6485;51.472;5.268;2022-08-19T10:27:32;21.60;99.90
12837;DHT22;6485;51.472;5.268;2022-08-19T10:30:03;21.70;99.90
12837;DHT22;6485;51.472;5.268;2022-08-19T10:32:36;21.80;99.90
12837;DHT22;6485;51.472;5.268;2022-08-19T10:35:13;22.00;99.90
12837;DHT22;6485;51.472;5.268;2022-08-19T10:37:50;22.10;99.90
12837;DHT22;6485;51.472;5.268;2022-08-19T10:40:36;22.30;99.90
12837;DHT22;6485;51.472;5.268;2022-08-19T10:43:17;22.30;99.90
12837;DHT22;6485;51.472;5.268;2022-08-19T10:45:52;22.40;99.90
12837;DHT22;6485;51.472;5.268;2022-08-19T10:48:25;22.30;99.90
12837;DHT22;6485;51.472;5.268;2022-08-19T10:51:05;22.30;99.90
12837;DHT22;6485;51.472;5.268;2022-08-19T10:53:54;22.20;99.90
12837;DHT22;6485;51.472;5.268;2022-08-19T10:56:26;22.10;99.90
12837;DHT22;6485;51.472;5.268;2022-08-19T10:59:15;22.00;99.90
12837;DHT22;6485;51.472;5.268;2022-08-19T11:01:54;22.10;99.90
12837;DHT22;6485;51.472;5.268;2022-08-19T11:04:29;22.10;99.90
12837;DHT22;6485;51.472;5.268;2022-08-19T11:07:04;22.20;99.90
12837;DHT22;6485;51.472;5.268;2022-08-19T11:09:38;22.30;99.90
12837;DHT22;6485;51.472;5.268;2022-08-19T11:12:10;22.40;99.90
12837;DHT22;6485;51.472;5.268;2022-08-19T11:14:45;22.50;99.90
12837;DHT22;6485;51.472;5.268;2022-08-19T11:17:17;22.50;99.90
12837;DHT22;6485;51.472;5.268;2022-08-19T11:19:46;22.60;99.90
12837;DHT22;6485;51.472;5.268;2022-08-19T11:22:16;22.60;99.90
12837;DHT22;6485;51.472;5.268;2022-08-19T11:24:46;22.50;99.90
12837;DHT22;6485;51.472;5.268;2022-08-19T11:27:15;22.60;99.90
12837;DHT22;6485;51.472;5.268;2022-08-19T11:29:46;22.70;99.90
12837;DHT22;6485;51.472;5.268;2022-08-19T11:32:14;22.60;96.80
12837;DHT22;6485;51.472;5.268;2022-08-19T11:34:44;22.60;99.90
12837;DHT22;6485;51.472;5.268;2022-08-19T11:37:13;22.60;99.90
12837;DHT22;6485;51.472;5.268;2022-08-19T11:39:43;22.80;92.50
12837;DHT22;6485;51.472;5.268;2022-08-19T11:42:20;22.80;67.30
12837;DHT22;6485;51.472;5.268;2022-08-19T11:45:09;23.00;99.90
12837;DHT22;6485;51.472;5.268;2022-08-19T11:47:38;23.20;96.90
12837;DHT22;6485;51.472;5.268;2022-08-19T11:50:08;23.30;42.00
12837;DHT22;6485;51.472;5.268;2022-08-19T11:52:37;23.30;63.00
12837;DHT22;6485;51.472;5.268;2022-08-19T11:55:07;23.50;76.90
12837;DHT22;6485;51.472;5.268;2022-08-19T11:57:36;23.70;43.90
12837;DHT22;6485;51.472;5.268;2022-08-19T12:00:08;23.70;19.30
12837;DHT22;6485;51.472;5.268;2022-08-19T12:02:38;23.70;12.80
12837;DHT22;6485;51.472;5.268;2022-08-19T12:05:07;23.70;23.80
12837;DHT22;6485;51.472;5.268;2022-08-19T12:07:39;23.60;7.80
12837;DHT22;6485;51.472;5.268;2022-08-19T12:10:10;23.40;2.90
12837;DHT22;6485;51.472;5.268;2022-08-19T12:12:45;23.30;26.00
12837;DHT22;6485;51.472;5.268;2022-08-19T12:15:35;23.20;40.30
12837;DHT22;6485;51.472;5.268;2022-08-19T12:18:14;23.30;62.60
12837;DHT22;6485;51.472;5.268;2022-08-19T12:20:52;23.30;95.20
12837;DHT22;6485;51.472;5.268;2022-08-19T12:23:22;23.50;98.50
12837;DHT22;6485;51.472;5.268;2022-08-19T12:25:50;23.60;77.70
12837;DHT22;6485;51.472;5.268;2022-08-19T12:28:20;23.70;99.90
12837;DHT22;6485;51.472;5.268;2022-08-19T12:30:56;23.70;31.90
12837;DHT22;6485;51.472;5.268;2022-08-19T12:33:25;23.90;98.20
12837;DHT22;6485;51.472;5.268;2022-08-19T12:36:00;24.00;43.30
12837;DHT22;6485;51.472;5.268;2022-08-19T12:38:34;24.10;44.50
12837;DHT22;6485;51.472;5.268;2022-08-19T12:41:10;24.10;3.70
12837;DHT22;6485;51.472;5.268;2022-08-19T12:43:50;24.20;5.70
12837;DHT22;6485;51.472;5.268;2022-08-19T12:46:21;24.30;14.70
12837;DHT22;6485;51.472;5.268;2022-08-19T12:48:52;24.30;6.20
12837;DHT22;6485;51.472;5.268;2022-08-19T12:51:22;24.40;3.10
12837;DHT22;6485;51.472;5.268;2022-08-19T12:53:54;24.40;13.50
12837;DHT22;6485;51.472;5.268;2022-08-19T12:56:30;24.40;20.30
12837;DHT22;6485;51.472;5.268;2022-08-19T12:59:03;24.30;32.00
12837;DHT22;6485;51.472;5.268;2022-08-19T13:01:42;24.10;85.90
12837;DHT22;6485;51.472;5.268;2022-08-19T13:04:15;24.10;70.00
12837;DHT22;6485;51.472;5.268;2022-08-19T13:06:44;24.10;52.10
12837;DHT22;6485;51.472;5.268;2022-08-19T13:09:13;24.10;24.80
12837;DHT22;6485;51.472;5.268;2022-08-19T13:11:43;24.20;21.20
12837;DHT22;6485;51.472;5.268;2022-08-19T13:14:13;24.20;3.70
12837;DHT22;6485;51.472;5.268;2022-08-19T13:16:50;24.20;52.90
12837;DHT22;6485;51.472;5.268;2022-08-19T13:19:23;24.20;51.10
12837;DHT22;6485;51.472;5.268;2022-08-19T13:57:01;23.90;67.50
12837;DHT22;6485;51.472;5.268;2022-08-19T13:59:33;24.00;57.00
12837;DHT22;6485;51.472;5.268;2022-08-19T14:02:05;24.20;59.30
12837;DHT22;6485;51.472;5.268;2022-08-19T14:04:35;24.40;51.40
12837;DHT22;6485;51.472;5.268;2022-08-19T14:07:05;24.40;17.40
12837;DHT22;6485;51.472;5.268;2022-08-19T14:09:36;24.40;7.80
12837;DHT22;6485;51.472;5.268;2022-08-19T14:12:08;24.40;37.20
12837;DHT22;6485;51.472;5.268;2022-08-19T14:14:39;24.40;7.00
12837;DHT22;6485;51.472;5.268;2022-08-19T14:17:10;24.40;46.20
12837;DHT22;6485;51.472;5.268;2022-08-19T14:19:44;24.30;52.60
12837;DHT22;6485;51.472;5.268;2022-08-19T14:22:14;24.30;1.00
12837;DHT22;6485;51.472;5.268;2022-08-19T14:24:48;24.20;1.30
12837;DHT22;6485;51.472;5.268;2022-08-19T14:27:21;24.20;1.00
12837;DHT22;6485;51.472;5.268;2022-08-19T14:32:49;24.40;1.00
12837;DHT22;6485;51.472;5.268;2022-08-19T14:35:22;24.20;1.00
12837;DHT22;6485;51.472;5.268;2022-08-19T14:37:54;24.10;1.00
12837;DHT22;6485;51.472;5.268;2022-08-19T14:40:28;24.10;28.70
12837;DHT22;6485;51.472;5.268;2022-08-19T14:43:00;24.10;1.00
12837;DHT22;6485;51.472;5.268;2022-08-19T14:45:34;24.10;1.00
12837;DHT22;6485;51.472;5.268;2022-08-19T14:48:09;24.20;2.70
12837;DHT22;6485;51.472;5.268;2022-08-19T14:50:46;24.30;1.00
12837;DHT22;6485;51.472;5.268;2022-08-19T14:53:18;24.30;1.00
12837;DHT22;6485;51.472;5.268;2022-08-19T14:55:50;24.30;1.00
12837;DHT22;6485;51.472;5.268;2022-08-19T14:58:22;24.40;1.00
12837;DHT22;6485;51.472;5.268;2022-08-19T15:00:58;24.50;2.80
12837;DHT22;6485;51.472;5.268;2022-08-19T15:03:31;24.50;1.00
12837;DHT22;6485;51.472;5.268;2022-08-19T15:10:04;24.50;1.00
12837;DHT22;6485;51.472;5.268;2022-08-19T15:12:34;24.60;1.00
12837;DHT22;6485;51.472;5.268;2022-08-19T15:15:09;24.70;1.00
12837;DHT22;6485;51.472;5.268;2022-08-19T15:17:43;24.70;1.00
12837;DHT22;6485;51.472;5.268;2022-08-19T15:20:19;24.70;1.00
12837;DHT22;6485;51.472;5.268;2022-08-19T15:22:51;24.70;1.00
12837;DHT22;6485;51.472;5.268;2022-08-19T15:25:20;24.80;1.00
12837;DHT22;6485;51.472;5.268;2022-08-19T15:27:52;24.70;1.00
12837;DHT22;6485;51.472;5.268;2022-08-19T15:30:30;24.70;1.00
12837;DHT22;6485;51.472;5.268;2022-08-19T15:33:02;24.70;1.00
12837;DHT22;6485;51.472;5.268;2022-08-19T15:35:36;24.70;1.00
12837;DHT22;6485;51.472;5.268;2022-08-19T15:38:16;24.60;1.00
12837;DHT22;6485;51.472;5.268;2022-08-19T15:40:47;24.60;1.00
12837;DHT22;6485;51.472;5.268;2022-08-19T15:43:19;24.60;1.00
12837;DHT22;6485;51.472;5.268;2022-08-19T15:45:50;24.50;1.00
12837;DHT22;6485;51.472;5.268;2022-08-19T15:48:19;24.40;1.00
12837;DHT22;6485;51.472;5.268;2022-08-19T15:50:57;24.30;1.00
12837;DHT22;6485;51.472;5.268;2022-08-19T15:53:28;24.20;1.00
12837;DHT22;6485;51.472;5.268;2022-08-19T15:55:58;24.10;1.00
12837;DHT22;6485;51.472;5.268;2022-08-19T15:58:29;24.00;1.00
12837;DHT22;6485;51.472;5.268;2022-08-19T16:01:21;24.00;23.80
12837;DHT22;6485;51.472;5.268;2022-08-19T16:04:12;24.00;7.50
12837;DHT22;6485;51.472;5.268;2022-08-19T16:07:01;23.80;77.30
12837;DHT22;6485;51.472;5.268;2022-08-19T16:09:44;23.70;99.90
12837;DHT22;6485;51.472;5.268;2022-08-19T16:12:18;23.50;99.90
12837;DHT22;6485;51.472;5.268;2022-08-19T16:14:50;23.40;99.90
12837;DHT22;6485;51.472;5.268;2022-08-19T16:17:28;23.30;99.90
12837;DHT22;6485;51.472;5.268;2022-08-19T16:19:59;23.20;99.90
12837;DHT22;6485;51.472;5.268;2022-08-19T16:22:58;23.10;99.90
12837;DHT22;6485;51.472;5.268;2022-08-19T16:25:44;23.10;99.90
12837;DHT22;6485;51.472;5.268;2022-08-19T16:28:14;23.00;99.90
12837;DHT22;6485;51.472;5.268;2022-08-19T16:30:44;22.90;99.90
12837;DHT22;6485;51.472;5.268;2022-08-19T16:33:19;22.80;99.90
12837;DHT22;6485;51.472;5.268;2022-08-19T16:35:49;22.70;99.90
12837;DHT22;6485;51.472;5.268;2022-08-19T16:38:33;22.60;99.90
12837;DHT22;6485;51.472;5.268;2022-08-19T16:41:04;22.60;99.90
12837;DHT22;6485;51.472;5.268;2022-08-19T16:43:34;22.60;99.90
12837;DHT22;6485;51.472;5.268;2022-08-19T16:46:05;22.50;99.90
12837;DHT22;6485;51.472;5.268;2022-08-19T16:48:36;22.00;99.90
12837;DHT22;6485;51.472;5.268;2022-08-19T16:51:09;21.90;99.90
12837;DHT22;6485;51.472;5.268;2022-08-19T16:53:40;21.80;99.90
12837;DHT22;6485;51.472;5.268;2022-08-19T16:56:09;21.60;99.90
12837;DHT22;6485;51.472;5.268;2022-08-19T16:58:38;21.50;99.90
12837;DHT22;6485;51.472;5.268;2022-08-19T17:01:10;21.60;99.90
12837;DHT22;6485;51.472;5.268;2022-08-19T17:03:41;21.60;99.90
12837;DHT22;6485;51.472;5.268;2022-08-19T17:06:12;21.70;99.90